Time;durP1;ratioP1;P1;durP2;ratioP2;P2;SDS_P1;SDS_P2;PMS_P1;PMS_P2;Temp;Humidity;BMP_temperature;BMP_pressure;BME280_temperature;BME280_humidity;BME280_pressure;Samples;Min_cycle;Max_cycle;Signal;HPM_P1;HPM_P2
2023/03/22 00:02:26;;;;;;;7.45;5.07;;;16.60;93.70;;;;;;5113757;28;20047;-62
2023/03/22 00:04:52;;;;;;;8.80;5.50;;;17.00;93.80;;;;;;5115040;28;20040;-62
2023/03/22 00:07:18;;;;;;;8.68;5.78;;;17.00;93.80;;;;;;5113933;28;20051;-62
2023/03/22 00:09:44;;;;;;;8.43;5.10;;;16.70;93.70;;;;;;5115429;28;20040;-62
2023/03/22 00:12:10;;;;;;;8.60;5.20;;;16.70;93.70;;;;;;5115365;28;20079;-62
2023/03/22 00:14:36;;;;;;;8.05;4.63;;;16.80;93.60;;;;;;5114619;28;20079;-62
2023/03/22 00:17:01;;;;;;;7.93;4.82;;;16.70;93.60;;;;;;5114223;28;20055;-62
2023/03/22 00:19:28;;;;;;;11.20;5.32;;;;;;;;;;5113138;28;20451;-64
2023/03/22 00:21:54;;;;;;;9.43;5.13;;;17.00;93.60;;;;;;5114579;27;20124;-62
2023/03/22 00:24:20;;;;;;;8.70;4.55;;;16.80;93.50;;;;;;5114524;28;20050;-62
2023/03/22 00:26:46;;;;;;;9.13;4.60;;;;;;;;;;5113284;28;20044;-65
2023/03/22 00:29:12;;;;;;;7.88;4.43;;;16.70;93.40;;;;;;5112539;28;20047;-62
2023/03/22 00:31:38;;;;;;;7.63;4.30;;;16.50;93.40;;;;;;5105442;28;20100;-66
2023/03/22 00:34:04;;;;;;;7.55;4.13;;;16.70;93.40;;;;;;5111383;28;20067;-61
2023/03/22 00:36:29;;;;;;;7.32;3.88;;;16.70;93.40;;;;;;5112127;28;20047;-61
2023/03/22 00:38:55;;;;;;;7.55;4.03;;;16.80;93.40;;;;;;5113054;28;20043;-62
2023/03/22 00:41:21;;;;;;;7.75;3.92;;;16.70;93.30;;;;;;5112896;28;20044;-61
2023/03/22 00:43:47;;;;;;;8.20;4.03;;;16.60;93.20;;;;;;5112918;28;20156;-63
2023/03/22 00:46:14;;;;;;;7.57;3.80;;;16.80;93.30;;;;;;5114374;28;20078;-64
2023/03/22 00:48:40;;;;;;;9.20;4.13;;;16.40;93.20;;;;;;5113804;28;20039;-62
2023/03/22 00:51:06;;;;;;;8.77;3.53;;;17.00;93.30;;;;;;5114000;28;20088;-63
2023/03/22 00:53:32;;;;;;;5.60;3.17;;;;;;;;;;5090672;28;20047;-61
2023/03/22 00:55:58;;;;;;;6.88;3.65;;;16.80;93.20;;;;;;5113836;28;20047;-61
2023/03/22 00:58:24;;;;;;;7.40;3.13;;;16.90;93.30;;;;;;5114015;28;20373;-62
2023/03/22 01:00:50;;;;;;;8.00;3.92;;;;;;;;;;5113154;28;20114;-62
2023/03/22 01:03:16;;;;;;;7.05;3.47;;;16.90;93.20;;;;;;5113946;28;20040;-62
2023/03/22 01:05:44;;;;;;;6.78;3.50;;;16.70;93.10;;;;;;5113309;28;20055;-61
2023/03/22 01:08:11;;;;;;;7.03;2.90;;;;;;;;;;5111773;28;20050;-66
2023/03/22 01:10:38;;;;;;;8.45;3.40;;;16.90;93.10;;;;;;5102499;28;20453;-64
2023/03/22 01:13:04;;;;;;;7.43;3.63;;;16.70;93.00;;;;;;5111435;28;20148;-64
2023/03/22 01:15:29;;;;;;;6.57;3.35;;;16.80;93.10;;;;;;5112275;28;20392;-64
2023/03/22 01:17:55;;;;;;;7.28;3.28;;;16.80;93.10;;;;;;5095372;28;20056;-64
2023/03/22 01:20:21;;;;;;;6.28;3.33;;;16.90;93.10;;;;;;5112356;28;20067;-61
2023/03/22 01:22:47;;;;;;;9.25;3.92;;;16.80;93.00;;;;;;5111285;28;20047;-62
2023/03/22 01:25:13;;;;;;;8.43;3.40;;;16.80;93.00;;;;;;5094399;28;20048;-61
2023/03/22 01:27:39;;;;;;;7.32;3.53;;;16.90;91.70;;;;;;5102691;28;20045;-62
2023/03/22 01:30:06;;;;;;;7.90;3.92;;;17.00;93.10;;;;;;5112447;28;20073;-62
2023/03/22 01:32:32;;;;;;;6.28;3.20;;;16.90;93.00;;;;;;5112340;28;20126;-62
2023/03/22 01:34:57;;;;;;;8.55;3.30;;;16.80;93.00;;;;;;5099439;28;20431;-65
2023/03/22 01:37:26;;;;;;;7.28;3.28;;;17.00;93.10;;;;;;5112306;28;20104;-65
2023/03/22 01:39:55;;;;;;;8.18;3.30;;;16.90;93.00;;;;;;5111272;28;20043;-61
2023/03/22 01:42:21;;;;;;;7.05;3.40;;;16.70;91.80;;;;;;5112038;28;20134;-62
2023/03/22 01:45:12;;;;;;;7.85;4.05;;;16.70;91.10;;;;;;5105717;28;20050;-62
2023/03/22 01:47:39;;;;;;;6.63;3.28;;;16.70;92.90;;;;;;5095180;28;20057;-65
2023/03/22 01:50:05;;;;;;;7.35;3.20;;;16.70;91.30;;;;;;5112434;28;20048;-66
2023/03/22 01:52:31;;;;;;;7.70;3.30;;;;;;;;;;5112894;28;20075;-61
2023/03/22 01:54:57;;;;;;;8.52;3.30;;;;;;;;;;5112700;28;20079;-64
2023/03/22 01:57:23;;;;;;;7.57;3.00;;;16.80;92.90;;;;;;5113055;28;20044;-62
2023/03/22 01:59:49;;;;;;;6.55;2.90;;;;;;;;;;5091098;28;20497;-61
2023/03/22 02:02:18;;;;;;;7.38;3.22;;;;;;;;;;5114291;27;20047;-62
2023/03/22 02:04:45;;;;;;;6.90;2.85;;;16.90;92.30;;;;;;5112712;28;20052;-61
2023/03/22 02:07:14;;;;;;;7.32;2.78;;;16.70;92.70;;;;;;5103845;28;20143;-63
2023/03/22 02:09:41;;;;;;;6.63;3.33;;;16.70;92.80;;;;;;5118974;28;20043;-63
2023/03/22 02:12:28;;;;;;;5.95;2.63;;;16.80;90.80;;;;;;5112682;28;20080;-62
2023/03/22 02:15:32;;;;;;;7.15;2.88;;;16.70;91.60;;;;;;5112800;28;20047;-61
2023/03/22 02:18:31;;;;;;;7.50;2.72;;;16.70;91.00;;;;;;5062603;28;20562;-61
2023/03/22 02:21:00;;;;;;;7.20;2.78;;;;;;;;;;5112029;28;20058;-63
2023/03/22 02:23:51;;;;;;;6.65;2.80;;;16.50;90.80;;;;;;5111667;28;20462;-63
2023/03/22 02:26:48;;;;;;;5.57;2.75;;;16.70;90.90;;;;;;5109777;28;20047;-62
2023/03/22 02:29:33;;;;;;;6.28;2.47;;;;;;;;;;5099127;28;20092;-66
2023/03/22 02:32:28;;;;;;;7.65;2.50;;;16.80;91.50;;;;;;5111527;28;20047;-63
2023/03/22 02:34:57;;;;;;;6.72;2.63;;;16.70;92.70;;;;;;5039780;28;20511;-63
2023/03/22 02:37:48;;;;;;;6.85;2.53;;;16.60;90.80;;;;;;5043309;28;20034;-63
2023/03/22 02:40:16;;;;;;;6.95;2.90;;;16.90;92.70;;;;;;5045247;28;20067;-62
2023/03/22 02:42:42;;;;;;;5.20;2.15;;;;;;;;;;5031766;28;20080;-66
2023/03/22 02:45:14;;;;;;;5.57;2.40;;;16.70;92.60;;;;;;5041193;28;20534;-64
2023/03/22 02:47:42;;;;;;;6.30;2.58;;;16.70;92.60;;;;;;5033616;28;20473;-65
2023/03/22 02:50:34;;;;;;;6.60;2.60;;;16.70;91.40;;;;;;5024898;28;20529;-64
2023/03/22 02:53:09;;;;;;;7.82;2.45;;;16.70;92.60;;;;;;5014668;28;20057;-63
2023/03/22 02:55:43;;;;;;;5.60;2.28;;;16.70;92.60;;;;;;5013225;28;20137;-63
2023/03/22 02:58:45;;;;;;;6.53;2.22;;;16.50;91.30;;;;;;5029599;28;20136;-64
2023/03/22 03:01:19;;;;;;;4.47;2.00;;;16.50;92.60;;;;;;5004565;28;20512;-64
2023/03/22 03:03:47;;;;;;;6.80;2.50;;;16.70;92.60;;;;;;4969903;28;20058;-63
2023/03/22 03:06:13;;;;;;;7.78;2.53;;;;;;;;;;4977626;28;20050;-64
2023/03/22 03:08:39;;;;;;;6.13;2.30;;;16.30;92.40;;;;;;4977440;28;20043;-64
2023/03/22 03:11:05;;;;;;;6.72;2.60;;;16.60;92.50;;;;;;5018199;28;20067;-65
2023/03/22 03:13:31;;;;;;;6.30;2.55;;;16.60;92.50;;;;;;5053767;28;20045;-63
2023/03/22 03:15:58;;;;;;;10.52;2.80;;;16.60;92.50;;;;;;5052886;28;20462;-64
2023/03/22 03:18:26;;;;;;;5.80;2.40;;;;;;;;;;5037260;28;20055;-64
2023/03/22 03:20:59;;;;;;;5.97;2.40;;;16.70;90.40;;;;;;5052246;28;20053;-64
2023/03/22 03:23:27;;;;;;;6.75;2.30;;;;;;;;;;5051081;28;20458;-64
2023/03/22 03:26:16;;;;;;;6.97;2.30;;;16.70;92.50;;;;;;5023055;28;21208;-66
2023/03/22 03:28:51;;;;;;;7.03;2.15;;;;;;;;;;5021010;28;20119;-64
2023/03/22 03:31:42;;;;;;;5.97;2.33;;;16.50;92.40;;;;;;5032241;28;20152;-62
2023/03/22 03:34:26;;;;;;;5.00;2.15;;;16.80;92.50;;;;;;5021937;28;20387;-62
2023/03/22 03:37:07;;;;;;;8.68;2.15;;;16.60;91.10;;;;;;5077601;28;20488;-65
2023/03/22 03:39:34;;;;;;;7.90;2.47;;;16.60;92.40;;;;;;5096078;28;20092;-64
2023/03/22 03:42:00;;;;;;;6.40;2.30;;;16.60;91.00;;;;;;5096030;28;20056;-66
2023/03/22 03:44:26;;;;;;;8.35;2.50;;;16.60;92.40;;;;;;5095430;28;20082;-66
2023/03/22 03:46:52;;;;;;;6.88;2.42;;;16.60;91.40;;;;;;5078101;28;20140;-64
2023/03/22 03:49:17;;;;;;;9.40;2.42;;;16.70;92.40;;;;;;5112906;28;20063;-64
2023/03/22 03:51:48;;;;;;;6.10;2.47;;;16.60;90.40;;;;;;5118461;27;20070;-67
2023/03/22 03:54:14;;;;;;;6.40;2.70;;;;;;;;;;5077050;28;20115;-66
2023/03/22 03:56:40;;;;;;;6.00;2.30;;;;;;;;;;5095298;28;20554;-65
2023/03/22 03:59:07;;;;;;;8.77;2.65;;;16.70;91.50;;;;;;5094401;28;20477;-65
2023/03/22 04:01:32;;;;;;;8.35;2.53;;;16.60;92.30;;;;;;5113478;28;20039;-65
2023/03/22 04:03:59;;;;;;;7.13;2.63;;;;;;;;;;5096736;28;20036;-63
2023/03/22 04:06:24;;;;;;;5.50;2.10;;;16.30;92.30;;;;;;5114344;28;20063;-64
2023/03/22 04:08:52;;;;;;;6.53;2.22;;;16.90;92.40;;;;;;5090515;28;20060;-64
2023/03/22 04:11:21;;;;;;;8.85;2.45;;;16.50;90.90;;;;;;5084257;28;20109;-64
2023/03/22 04:13:46;;;;;;;7.13;2.50;;;16.50;92.30;;;;;;5112972;28;20036;-63
2023/03/22 04:16:12;;;;;;;8.40;2.55;;;16.50;92.30;;;;;;5111484;28;20416;-65
2023/03/22 04:18:38;;;;;;;6.22;2.40;;;16.70;92.30;;;;;;5113313;28;20039;-63
2023/03/22 04:21:04;;;;;;;16.38;3.15;;;16.70;92.30;;;;;;5113930;28;20123;-64
2023/03/22 04:23:31;;;;;;;6.72;2.40;;;16.40;92.20;;;;;;5094743;28;20101;-62
2023/03/22 04:25:58;;;;;;;6.72;2.40;;;16.60;92.30;;;;;;5113800;28;20480;-63
2023/03/22 04:28:25;;;;;;;5.82;2.00;;;16.60;92.30;;;;;;5113418;28;20047;-62
2023/03/22 04:30:51;;;;;;;6.53;2.33;;;;;;;;;;5113055;28;20124;-63
2023/03/22 04:33:18;;;;;;;8.52;2.13;;;16.60;91.30;;;;;;5110224;28;20481;-63
2023/03/22 04:35:47;;;;;;;7.60;2.80;;;16.50;92.30;;;;;;5114472;28;20052;-63
2023/03/22 04:38:13;;;;;;;6.93;2.65;;;16.40;92.30;;;;;;5104435;28;20040;-63
2023/03/22 04:40:45;;;;;;;8.93;2.53;;;16.40;92.30;;;;;;5112620;28;20114;-61
2023/03/22 04:43:12;;;;;;;4.82;2.38;;;;;;;;;;5112236;28;21436;-64
2023/03/22 04:45:38;;;;;;;6.47;2.45;;;;;;;;;;5113281;28;20036;-66
2023/03/22 04:48:06;;;;;;;7.93;2.20;;;16.60;92.30;;;;;;5113564;28;20044;-65
2023/03/22 04:50:32;;;;;;;6.18;2.35;;;16.50;92.30;;;;;;5103764;28;20100;-61
2023/03/22 04:52:58;;;;;;;5.72;2.60;;;16.30;91.80;;;;;;5107444;28;20051;-62
2023/03/22 04:55:26;;;;;;;9.40;2.67;;;16.70;92.30;;;;;;5112812;28;20100;-61
2023/03/22 04:57:53;;;;;;;8.30;2.55;;;16.60;92.30;;;;;;5112274;28;20047;-62
2023/03/22 05:00:20;;;;;;;7.43;2.53;;;16.60;92.30;;;;;;5113024;28;20122;-62
2023/03/22 05:02:47;;;;;;;8.38;2.20;;;16.10;92.20;;;;;;5112830;28;20043;-63
2023/03/22 05:05:13;;;;;;;5.60;1.92;;;16.10;92.10;;;;;;5112247;28;20164;-64
2023/03/22 05:07:38;;;;;;;7.43;2.25;;;16.70;91.00;;;;;;5102545;28;20486;-64
2023/03/22 05:10:05;;;;;;;7.97;2.67;;;16.40;92.20;;;;;;5093994;28;20028;-62
2023/03/22 05:12:31;;;;;;;6.53;2.38;;;16.50;92.30;;;;;;5113893;28;20054;-61
2023/03/22 05:14:57;;;;;;;7.72;2.40;;;16.50;92.20;;;;;;5113652;28;20079;-63
2023/03/22 05:17:23;;;;;;;7.38;2.45;;;16.40;92.20;;;;;;5112963;28;20516;-62
2023/03/22 05:19:50;;;;;;;6.28;2.55;;;;;;;;;;5113406;28;20051;-64
2023/03/22 05:22:18;;;;;;;7.30;2.80;;;16.50;92.20;;;;;;5113074;28;20054;-64
2023/03/22 05:24:44;;;;;;;7.47;2.60;;;16.30;92.20;;;;;;5101318;28;20076;-63
2023/03/22 05:27:10;;;;;;;7.22;2.75;;;16.40;92.20;;;;;;5093044;28;20058;-61
2023/03/22 05:29:43;;;;;;;10.23;2.90;;;16.60;92.30;;;;;;5100223;28;20477;-65
2023/03/22 05:32:10;;;;;;;7.47;2.78;;;16.40;90.40;;;;;;5113462;28;20124;-63
2023/03/22 05:34:36;;;;;;;8.27;2.92;;;16.50;92.20;;;;;;5112266;28;20040;-62
2023/03/22 05:37:02;;;;;;;6.82;2.90;;;16.50;92.30;;;;;;5111317;28;20058;-62
2023/03/22 05:39:28;;;;;;;5.95;2.50;;;16.40;92.20;;;;;;5093576;28;20393;-62
2023/03/22 05:41:54;;;;;;;6.35;2.92;;;16.50;92.30;;;;;;5106054;28;20047;-61
2023/03/22 05:44:19;;;;;;;7.90;3.53;;;16.40;92.30;;;;;;5105960;28;20043;-62
2023/03/22 05:46:45;;;;;;;7.53;3.25;;;16.20;91.50;;;;;;5112787;28;20047;-62
2023/03/22 05:49:11;;;;;;;7.93;4.00;;;;;;;;;;5112802;28;20404;-65
2023/03/22 05:51:40;;;;;;;7.80;4.10;;;16.40;92.30;;;;;;5111451;28;20044;-62
2023/03/22 05:54:07;;;;;;;9.95;4.82;;;16.40;92.30;;;;;;5112580;28;20370;-64
2023/03/22 05:56:34;;;;;;;8.50;4.38;;;16.40;92.40;;;;;;5112159;28;20031;-63
2023/03/22 05:59:00;;;;;;;9.23;4.35;;;16.50;92.40;;;;;;5110362;28;20413;-65
2023/03/22 06:01:26;;;;;;;9.90;4.95;;;16.40;91.00;;;;;;5110838;28;20116;-64
2023/03/22 06:03:52;;;;;;;8.57;4.80;;;16.40;92.40;;;;;;5094467;28;20051;-63
2023/03/22 06:06:18;;;;;;;7.25;4.40;;;16.50;92.50;;;;;;5098046;28;20035;-61
2023/03/22 06:08:43;;;;;;;8.75;4.47;;;16.30;92.40;;;;;;5094517;28;20040;-63
2023/03/22 06:11:09;;;;;;;7.90;4.80;;;16.20;92.40;;;;;;5113090;28;20074;-62
2023/03/22 06:13:36;;;;;;;8.32;4.82;;;16.40;92.50;;;;;;5113303;28;20066;-61
2023/03/22 06:16:02;;;;;;;13.60;5.15;;;16.20;92.40;;;;;;5095295;28;20450;-62
2023/03/22 06:18:28;;;;;;;10.45;4.88;;;16.60;92.60;;;;;;5112382;28;20052;-62
2023/03/22 06:20:54;;;;;;;9.55;5.13;;;16.20;92.40;;;;;;5112382;28;20058;-63
2023/03/22 06:23:20;;;;;;;9.38;5.68;;;16.10;92.40;;;;;;5112363;28;20074;-61
2023/03/22 06:25:46;;;;;;;10.05;5.22;;;16.00;92.50;;;;;;5112849;28;20033;-66
2023/03/22 06:28:12;;;;;;;9.75;5.50;;;;;;;;;;5112606;28;20048;-64
2023/03/22 06:30:38;;;;;;;9.57;5.38;;;16.40;92.50;;;;;;5112212;28;20128;-62
2023/03/22 06:33:04;;;;;;;11.88;5.70;;;16.40;92.50;;;;;;5107069;28;20085;-62
2023/03/22 06:35:33;;;;;;;8.63;4.97;;;16.30;90.50;;;;;;5109698;28;20083;-65
2023/03/22 06:37:59;;;;;;;10.15;5.38;;;;;;;;;;5104779;28;20047;-64
2023/03/22 06:40:26;;;;;;;9.13;5.72;;;16.60;92.60;;;;;;5114773;28;20112;-63
2023/03/22 06:42:53;;;;;;;8.75;5.45;;;;;;;;;;5087064;28;20059;-64
2023/03/22 06:45:19;;;;;;;9.95;5.63;;;16.50;92.50;;;;;;5115505;28;20047;-62
2023/03/22 06:47:45;;;;;;;11.40;5.95;;;16.60;92.60;;;;;;5115079;28;20394;-62
2023/03/22 06:50:13;;;;;;;9.38;5.55;;;;;;;;;;5100474;28;20090;-62
2023/03/22 06:52:39;;;;;;;11.88;6.55;;;16.50;92.50;;;;;;5110104;28;20046;-62
2023/03/22 06:55:05;;;;;;;11.02;5.78;;;16.20;92.40;;;;;;5114964;28;20035;-62
2023/03/22 06:57:31;;;;;;;9.52;6.25;;;16.10;92.40;;;;;;5114055;28;20049;-62
2023/03/22 06:59:56;;;;;;;11.30;5.95;;;16.40;92.50;;;;;;5114625;28;20046;-62
2023/03/22 07:02:23;;;;;;;9.60;5.55;;;;;;;;;;5113108;28;20046;-65
2023/03/22 07:04:49;;;;;;;9.23;5.60;;;;;;;;;;5111421;28;20074;-64
2023/03/22 07:07:15;;;;;;;7.82;5.15;;;16.60;92.50;;;;;;5106318;28;20080;-63
2023/03/22 07:09:40;;;;;;;11.40;5.95;;;16.60;92.50;;;;;;5112990;28;20493;-62
2023/03/22 07:12:06;;;;;;;10.13;6.93;;;16.30;92.40;;;;;;5114967;28;20477;-71
2023/03/22 07:14:32;;;;;;;13.68;7.30;;;16.60;92.50;;;;;;5096255;28;20039;-65
2023/03/22 07:16:58;;;;;;;12.13;7.05;;;16.50;92.60;;;;;;5115557;28;20473;-65
2023/03/22 07:19:24;;;;;;;11.88;7.40;;;;;;;;;;5115931;28;20082;-67
2023/03/22 07:21:51;;;;;;;14.73;7.43;;;;;;;;;;5109154;28;20046;-62
2023/03/22 07:24:16;;;;;;;14.88;7.53;;;16.10;92.90;;;;;;5102621;28;20106;-62
2023/03/22 07:26:42;;;;;;;12.23;7.68;;;15.70;93.00;;;;;;5106407;28;20035;-63
2023/03/22 07:29:08;;;;;;;13.02;7.07;;;;;;;;;;5114316;28;20562;-65
2023/03/22 07:31:35;;;;;;;11.52;7.60;;;;;;;;;;5113850;28;20409;-63
2023/03/22 07:34:04;;;;;;;12.38;6.68;;;15.90;93.40;;;;;;5112248;28;20051;-63
2023/03/22 07:36:30;;;;;;;14.32;7.78;;;;;;;;;;5110628;28;20043;-67
2023/03/22 07:38:56;;;;;;;13.20;6.70;;;15.50;93.50;;;;;;5114020;28;20118;-62
2023/03/22 07:41:22;;;;;;;12.95;7.50;;;;;;;;;;5107650;28;20119;-66
2023/03/22 07:43:49;;;;;;;12.32;7.63;;;15.70;93.70;;;;;;5104578;28;20055;-61
2023/03/22 07:46:15;;;;;;;11.65;6.97;;;;;;;;;;5095948;28;20051;-63
2023/03/22 07:48:41;;;;;;;13.13;6.30;;;15.70;93.80;;;;;;5113969;28;20044;-62
2023/03/22 07:51:07;;;;;;;11.57;5.80;;;15.70;93.90;;;;;;5110017;28;20042;-62
2023/03/22 07:53:33;;;;;;;12.95;6.18;;;15.60;94.00;;;;;;5112558;27;20038;-66
2023/03/22 07:55:59;;;;;;;11.25;5.60;;;15.70;93.90;;;;;;5111402;28;20051;-62
2023/03/22 07:58:24;;;;;;;12.15;6.18;;;15.80;93.90;;;;;;5097832;28;20394;-63
2023/03/22 08:00:50;;;;;;;11.70;5.57;;;;;;;;;;5095676;28;20051;-62
2023/03/22 08:03:16;;;;;;;11.65;5.03;;;15.90;93.60;;;;;;5113033;28;20047;-62
2023/03/22 08:05:42;;;;;;;9.77;5.05;;;16.10;93.60;;;;;;5113759;28;20036;-63
2023/03/22 08:08:08;;;;;;;9.15;5.25;;;15.90;93.50;;;;;;5114746;28;20118;-62
2023/03/22 08:10:34;;;;;;;11.27;5.28;;;16.20;93.50;;;;;;5093412;28;20043;-61
2023/03/22 08:13:00;;;;;;;12.15;5.53;;;16.00;93.30;;;;;;5107102;28;20047;-63
2023/03/22 08:15:26;;;;;;;7.70;4.43;;;16.20;93.40;;;;;;5097311;28;20040;-62
2023/03/22 08:17:52;;;;;;;7.65;4.57;;;;;;;;;;5079983;28;20129;-62
2023/03/22 08:20:18;;;;;;;8.82;4.50;;;16.20;93.30;;;;;;5072180;28;20040;-66
2023/03/22 08:22:44;;;;;;;9.40;4.93;;;16.20;93.30;;;;;;5071839;28;20087;-63
2023/03/22 08:25:10;;;;;;;9.63;4.47;;;16.40;93.30;;;;;;5060374;28;20206;-63
2023/03/22 08:27:36;;;;;;;10.95;4.50;;;16.50;93.30;;;;;;5070154;28;20160;-63
2023/03/22 08:30:02;;;;;;;10.95;4.47;;;16.30;91.50;;;;;;5074142;28;20410;-63
2023/03/22 08:32:28;;;;;;;9.65;4.47;;;16.40;93.20;;;;;;5060814;28;20418;-63
2023/03/22 08:34:54;;;;;;;7.95;3.90;;;16.40;93.10;;;;;;5069849;28;20040;-63
2023/03/22 08:37:20;;;;;;;7.43;3.75;;;16.50;93.10;;;;;;5067371;28;20048;-62
2023/03/22 08:39:46;;;;;;;9.23;4.40;;;16.40;93.10;;;;;;5085310;28;20040;-62
2023/03/22 08:42:11;;;;;;;9.70;4.50;;;16.40;93.10;;;;;;5094125;28;20470;-62
2023/03/22 08:44:38;;;;;;;8.57;4.20;;;;;;;;;;5094007;28;20044;-64
2023/03/22 08:47:04;;;;;;;14.57;4.35;;;16.30;93.00;;;;;;5070478;28;20176;-64
2023/03/22 08:49:30;;;;;;;8.88;4.00;;;16.50;93.00;;;;;;5055226;28;20128;-64
2023/03/22 08:51:59;;;;;;;9.35;3.65;;;16.60;93.00;;;;;;5053239;28;20049;-64
2023/03/22 08:54:26;;;;;;;7.88;3.80;;;16.40;93.00;;;;;;5068850;28;20040;-63
2023/03/22 08:56:52;;;;;;;8.02;3.75;;;16.60;92.30;;;;;;5062901;28;20479;-64
2023/03/22 08:59:18;;;;;;;10.93;4.13;;;16.60;92.10;;;;;;5052745;28;20136;-66
2023/03/22 09:01:44;;;;;;;10.95;3.80;;;16.50;92.90;;;;;;5052286;28;20127;-62
2023/03/22 09:04:10;;;;;;;8.82;3.63;;;16.60;92.90;;;;;;5064038;28;20064;-61
2023/03/22 09:06:36;;;;;;;10.63;4.20;;;16.70;92.90;;;;;;5061678;28;20417;-69
2023/03/22 09:09:03;;;;;;;8.65;3.72;;;16.50;92.90;;;;;;5073098;28;20040;-70
2023/03/22 09:11:29;;;;;;;5.50;3.15;;;;;;;;;;5086224;28;20041;-70
2023/03/22 09:13:56;;;;;;;6.95;3.65;;;16.40;92.70;;;;;;5072666;28;20048;-70
2023/03/22 09:16:23;;;;;;;7.63;3.00;;;16.50;92.70;;;;;;5071518;28;20063;-68
2023/03/22 09:18:50;;;;;;;8.27;2.97;;;;;;;;;;5104300;28;20052;-65
2023/03/22 09:21:16;;;;;;;6.00;3.20;;;16.70;92.70;;;;;;5092999;28;20052;-69
2023/03/22 09:23:46;;;;;;;11.73;3.75;;;16.70;92.70;;;;;;5092034;28;20048;-69
2023/03/22 09:26:12;;;;;;;6.55;3.22;;;16.70;92.70;;;;;;5107382;28;20114;-67
2023/03/22 09:28:38;;;;;;;10.68;4.00;;;16.90;92.70;;;;;;5097011;28;20175;-65
2023/03/22 09:31:08;;;;;;;7.63;3.53;;;16.80;92.60;;;;;;5104090;28;20511;-70
2023/03/22 09:33:34;;;;;;;8.70;3.28;;;16.70;92.60;;;;;;5113347;28;20393;-68
2023/03/22 09:36:00;;;;;;;9.60;3.45;;;17.00;92.60;;;;;;5099620;28;20379;-68
2023/03/22 09:38:26;;;;;;;7.38;3.20;;;16.80;92.50;;;;;;5098453;28;20095;-69
2023/03/22 09:41:01;;;;;;;6.75;3.15;;;16.90;91.00;;;;;;5071836;28;20125;-64
2023/03/22 09:43:34;;;;;;;8.75;3.00;;;16.60;92.40;;;;;;5070182;28;20047;-64
2023/03/22 09:46:01;;;;;;;7.25;2.92;;;;;;;;;;5061650;28;20147;-66
2023/03/22 09:48:29;;;;;;;8.88;3.05;;;16.40;92.40;;;;;;5069502;28;20045;-69
2023/03/22 09:50:55;;;;;;;7.53;2.90;;;;;;;;;;5074459;28;20570;-70
2023/03/22 09:53:22;;;;;;;6.10;2.90;;;16.80;91.20;;;;;;5071959;28;20127;-62
2023/03/22 09:55:54;;;;;;;8.68;3.60;;;16.40;91.10;;;;;;5091306;28;20044;-63
2023/03/22 09:58:31;;;;;;;8.20;3.63;;;16.90;92.50;;;;;;5075902;28;20499;-62
2023/03/22 10:01:00;;;;;;;7.32;2.58;;;16.90;92.50;;;;;;5064338;28;20102;-69
2023/03/22 10:03:47;;;;;;;7.10;2.95;;;16.80;90.30;;;;;;5081448;28;20109;-61
2023/03/22 10:06:14;;;;;;;7.40;3.08;;;;;;;;;;5094295;28;20046;-67
2023/03/22 10:08:43;;;;;;;8.57;2.90;;;16.80;92.40;;;;;;5086364;28;20043;-62
2023/03/22 10:11:12;;;;;;;8.10;3.40;;;;;;;;;;5096525;28;20098;-62
2023/03/22 10:13:52;;;;;;;9.45;3.00;;;16.80;91.00;;;;;;5090667;28;20074;-60
2023/03/22 10:16:26;;;;;;;6.22;2.85;;;16.80;92.30;;;;;;5066780;28;20153;-64
2023/03/22 10:19:04;;;;;;;8.82;3.00;;;16.60;91.00;;;;;;5069645;28;20123;-62
2023/03/22 10:21:30;;;;;;;7.75;2.58;;;16.90;92.40;;;;;;5072794;28;20045;-61
2023/03/22 10:24:00;;;;;;;7.38;2.85;;;16.90;90.90;;;;;;5069502;28;20037;-62
2023/03/22 10:26:36;;;;;;;7.20;3.00;;;16.50;92.30;;;;;;5069748;28;20389;-61
2023/03/22 10:29:04;;;;;;;8.57;2.30;;;16.80;92.40;;;;;;5061159;28;20057;-62
2023/03/22 10:31:30;;;;;;;9.45;2.90;;;16.80;92.40;;;;;;5077100;28;20047;-64
2023/03/22 10:34:05;;;;;;;9.02;3.25;;;16.80;92.40;;;;;;5088062;28;20124;-62
2023/03/22 10:36:33;;;;;;;7.85;3.08;;;16.80;92.40;;;;;;5059131;28;20136;-61
2023/03/22 10:39:27;;;;;;;7.18;2.45;;;17.00;91.10;;;;;;5066263;28;20056;-62
2023/03/22 10:41:53;;;;;;;;;;;16.90;91.20;;;;;;5064145;28;20063;-64
2023/03/22 10:44:18;;;;;;;8.13;2.63;;;16.40;92.30;;;;;;5054854;28;20306;-65
2023/03/22 10:46:44;;;;;;;10.38;2.60;;;16.70;92.40;;;;;;5057376;28;20052;-65
2023/03/22 10:49:39;;;;;;;7.75;3.10;;;16.60;91.00;;;;;;5031770;28;20045;-65
2023/03/22 10:52:38;;;;;;;7.22;2.88;;;16.70;90.50;;;;;;5063741;28;20052;-63
2023/03/22 10:55:09;;;;;;;7.93;2.53;;;16.60;92.20;;;;;;5065173;28;20064;-63
2023/03/22 10:57:35;;;;;;;6.40;2.50;;;16.40;92.30;;;;;;5068991;28;20052;-61
2023/03/22 11:00:00;;;;;;;7.90;2.35;;;16.60;92.50;;;;;;5090802;28;20079;-63
2023/03/22 11:02:30;;;;;;;6.28;2.30;;;16.70;92.50;;;;;;5043622;28;20087;-62
2023/03/22 11:05:01;;;;;;;8.80;2.55;;;16.70;92.50;;;;;;5057570;28;20056;-62
2023/03/22 11:07:34;;;;;;;7.38;2.35;;;16.30;92.40;;;;;;5058603;28;20120;-61
2023/03/22 11:10:09;;;;;;;6.03;2.20;;;16.50;92.50;;;;;;5089771;28;20101;-62
2023/03/22 11:12:35;;;;;;;8.98;2.42;;;16.40;92.50;;;;;;5070468;28;20044;-62
2023/03/22 11:15:02;;;;;;;7.05;2.60;;;16.70;92.60;;;;;;5079472;28;20044;-63
2023/03/22 11:17:28;;;;;;;5.60;2.33;;;;;;;;;;5098783;28;20113;-64
2023/03/22 11:20:08;;;;;;;7.07;2.45;;;16.80;92.60;;;;;;5079344;28;20059;-62
2023/03/22 11:22:39;;;;;;;7.13;2.42;;;16.40;91.10;;;;;;5056048;28;20682;-68
2023/03/22 11:25:27;;;;;;;7.60;2.67;;;16.70;90.70;;;;;;5059808;28;20056;-66
2023/03/22 11:28:14;;;;;;;7.22;2.53;;;16.60;92.60;;;;;;5057588;28;20052;-62
2023/03/22 11:30:40;;;;;;;6.43;2.20;;;;;;;;;;5066816;28;20079;-66
2023/03/22 11:33:19;;;;;;;5.00;2.05;;;16.70;92.70;;;;;;5059410;28;20078;-62
2023/03/22 11:35:47;;;;;;;6.10;2.30;;;16.70;92.40;;;;;;5071720;28;20052;-62
2023/03/22 11:38:24;;;;;;;5.32;2.15;;;16.80;90.80;;;;;;5046929;28;20108;-62
2023/03/22 11:41:01;;;;;;;5.53;2.55;;;16.50;91.40;;;;;;5082536;28;20056;-64
2023/03/22 11:43:35;;;;;;;7.03;2.78;;;16.60;91.60;;;;;;5074420;28;20059;-69
2023/03/22 11:46:01;;;;;;;7.85;3.30;;;16.60;92.80;;;;;;5072622;28;20036;-62
2023/03/22 11:48:28;;;;;;;9.63;2.92;;;16.50;93.00;;;;;;5072759;28;20107;-62
2023/03/22 11:50:57;;;;;;;9.45;3.75;;;16.60;92.50;;;;;;5072487;28;20049;-64
2023/03/22 11:53:24;;;;;;;7.97;3.22;;;16.30;93.30;;;;;;5069487;28;20041;-65
2023/03/22 11:55:52;;;;;;;8.23;3.28;;;16.40;93.40;;;;;;5036588;28;20053;-69
2023/03/22 11:58:25;;;;;;;8.45;3.38;;;16.20;93.50;;;;;;5055132;28;20049;-67
2023/03/22 12:00:53;;;;;;;8.13;2.90;;;16.00;92.10;;;;;;5056572;28;20106;-65
2023/03/22 12:03:20;;;;;;;10.27;3.03;;;15.80;93.60;;;;;;5070210;28;20052;-62
2023/03/22 12:05:47;;;;;;;8.80;3.33;;;16.00;93.00;;;;;;5076878;28;20093;-67
2023/03/22 12:08:26;;;;;;;7.32;2.90;;;16.00;92.20;;;;;;5082468;28;20041;-68
2023/03/22 12:11:01;;;;;;;7.95;2.75;;;16.20;94.10;;;;;;5040879;28;20490;-62
2023/03/22 12:13:48;;;;;;;7.85;2.95;;;15.70;92.30;;;;;;5056187;28;20044;-61
2023/03/22 12:16:16;;;;;;;8.20;3.15;;;15.90;94.20;;;;;;5059779;28;20048;-62
2023/03/22 12:18:45;;;;;;;6.80;2.60;;;15.80;92.90;;;;;;5102922;28;20134;-62
2023/03/22 12:21:11;;;;;;;8.35;3.22;;;15.90;94.30;;;;;;5114615;28;20050;-64
2023/03/22 12:23:37;;;;;;;8.77;3.22;;;;;;;;;;5098005;28;20052;-64
2023/03/22 12:26:17;;;;;;;7.88;3.08;;;15.70;92.60;;;;;;5110535;28;20045;-61
2023/03/22 12:28:54;;;;;;;6.53;2.67;;;15.80;93.20;;;;;;5089527;28;20095;-61
2023/03/22 12:31:26;;;;;;;6.80;2.67;;;15.70;93.20;;;;;;5072643;28;20083;-65
2023/03/22 12:33:56;;;;;;;6.97;2.97;;;;;;;;;;5082205;28;20040;-62
2023/03/22 12:36:40;;;;;;;7.38;2.90;;;15.70;93.40;;;;;;5068031;28;20083;-67
2023/03/22 12:39:06;;;;;;;7.45;2.80;;;15.60;94.60;;;;;;5054938;28;20390;-65
2023/03/22 12:41:37;;;;;;;9.02;2.60;;;15.50;92.60;;;;;;5073811;28;20405;-66
2023/03/22 12:44:16;;;;;;;7.40;2.72;;;15.60;93.50;;;;;;5090237;28;20070;-65
2023/03/22 12:47:20;;;;;;;7.88;2.85;;;15.50;93.60;;;;;;5082871;28;20397;-67
2023/03/22 12:50:16;;;;;;;7.38;2.65;;;15.60;93.60;;;;;;5054565;28;20454;-66
2023/03/22 12:52:47;;;;;;;6.60;2.28;;;15.70;94.70;;;;;;5065864;28;20040;-67
2023/03/22 12:55:31;;;;;;;6.90;2.20;;;15.60;93.00;;;;;;5052817;28;20132;-64
2023/03/22 12:57:57;;;;;;;6.47;2.42;;;15.50;94.80;;;;;;5054532;28;20532;-61
2023/03/22 13:00:44;;;;;;;7.57;2.45;;;15.40;92.70;;;;;;5071081;28;20121;-62
2023/03/22 13:03:16;;;;;;;8.25;2.47;;;15.40;94.90;;;;;;5069647;28;20044;-62
2023/03/22 13:05:47;;;;;;;11.20;2.92;;;15.70;95.10;;;;;;5070035;28;20559;-62
2023/03/22 13:08:18;;;;;;;7.13;2.13;;;15.60;95.00;;;;;;5070771;28;20613;-61
2023/03/22 13:10:57;;;;;;;8.25;2.92;;;15.80;93.80;;;;;;5067195;28;20480;-64
2023/03/22 13:13:24;;;;;;;8.98;2.70;;;15.30;94.90;;;;;;5053131;28;20056;-66
2023/03/22 13:16:07;;;;;;;10.93;3.17;;;15.60;93.30;;;;;;5059541;28;20053;-64